Time;durP1;ratioP1;P1;durP2;ratioP2;P2;SDS_P1;SDS_P2;PMS_P1;PMS_P2;Temp;Humidity;BMP_temperature;BMP_pressure;BME280_temperature;BME280_humidity;BME280_pressure;Samples;Min_cycle;Max_cycle;Signal;HPM_P1;HPM_P2
2021/10/21 00:01:44;;;;;;;;;;;;;;;9.87;nan;96658.81;5113060;28;20359;-76
2021/10/21 00:04:12;;;;;;;;;;;;;;;9.93;nan;96651.31;5116371;28;19924;-76
2021/10/21 00:06:39;;;;;;;;;;;;;;;10.08;nan;96643.78;5097960;28;19924;-76
2021/10/21 00:09:06;;;;;;;;;;;;;;;10.24;nan;96652.47;5097903;28;19932;-76
2021/10/21 00:11:34;;;;;;;;;;;;;;;10.15;nan;96652.56;5080741;28;19924;-77
2021/10/21 00:14:02;;;;;;;;;;;;;;;10.37;nan;96671.75;5097096;28;20410;-76
2021/10/21 00:16:29;;;;;;;;;;;;;;;10.31;nan;96666.06;5116037;28;19928;-76
2021/10/21 00:18:56;;;;;;;;;;;;;;;10.43;nan;96661.47;5115735;28;19928;-77
2021/10/21 00:21:23;;;;;;;;;;;;;;;10.37;nan;96678.09;5116016;28;19923;-76
2021/10/21 00:23:51;;;;;;;;;;;;;;;10.50;nan;96656.28;5097678;28;19930;-76
2021/10/21 00:26:18;;;;;;;;;;;;;;;10.38;nan;96667.69;5115693;28;19928;-77
2021/10/21 00:28:45;;;;;;;;;;;;;;;10.46;nan;96671.66;5115790;28;19923;-77
2021/10/21 00:31:13;;;;;;;;;;;;;;;10.47;nan;96671.19;5115512;28;19924;-77
2021/10/21 00:33:40;;;;;;;;;;;;;;;10.39;nan;96660.88;5115822;28;19930;-77
2021/10/21 00:36:07;;;;;;;;;;;;;;;10.61;nan;96661.28;5115504;28;19923;-77
2021/10/21 00:38:36;;;;;;;;;;;;;;;10.60;nan;96654.16;5115532;28;19927;-77
2021/10/21 00:41:28;;;;;;;;;;;;;;;10.41;nan;96672.31;5097299;28;19972;-76
2021/10/21 00:44:08;;;;;;;;;;;;;;;10.47;nan;96648.06;5115592;28;19924;-76
2021/10/21 00:46:36;;;;;;;;;;;;;;;10.61;nan;96689.19;5097209;28;19923;-76
2021/10/21 00:49:04;;;;;;;;;;;;;;;10.42;nan;96685.06;5115525;28;19928;-76
2021/10/21 00:51:31;;;;;;;;;;;;;;;10.08;nan;96646.56;5115060;28;19931;-76
2021/10/21 00:53:59;;;;;;;;;;;;;;;10.32;nan;96686.34;5115405;28;19983;-76
2021/10/21 00:56:27;;;;;;;;;;;;;;;10.40;nan;96690.34;5115065;28;19931;-76
2021/10/21 00:58:55;;;;;;;;;;;;;;;10.29;nan;96692.91;5097012;28;19924;-77
2021/10/21 01:01:22;;;;;;;;;;;;;;;10.05;nan;96667.03;5115327;28;19928;-76
2021/10/21 01:03:53;;;;;;;;;;;;;;;10.16;nan;96692.41;5115030;28;20290;-76
2021/10/21 01:06:20;;;;;;;;;;;;;;;10.43;nan;96701.31;5114941;28;20288;-76
2021/10/21 01:08:48;;;;;;;;;;;;;;;10.53;nan;96696.41;5115009;28;19930;-77
2021/10/21 01:11:15;;;;;;;;;;;;;;;10.47;nan;96704.69;5115029;28;20363;-76
2021/10/21 01:13:43;;;;;;;;;;;;;;;10.04;nan;96690.59;5114776;28;19927;-76
2021/10/21 01:16:12;;;;;;;;;;;;;;;10.18;nan;96698.25;5096875;28;19930;-77
2021/10/21 01:18:40;;;;;;;;;;;;;;;9.94;nan;96684.31;5114869;28;19924;-77
2021/10/21 01:21:08;;;;;;;;;;;;;;;9.87;nan;96695.84;5114587;28;20408;-76
2021/10/21 01:23:36;;;;;;;;;;;;;;;10.39;nan;96689.53;5114763;28;19977;-77
2021/10/21 01:26:14;;;;;;;;;;;;;;;9.87;nan;96695.06;5113681;28;19931;-76
2021/10/21 01:28:42;;;;;;;;;;;;;;;9.92;nan;96694.41;5096892;28;19928;-76
2021/10/21 01:31:11;;;;;;;;;;;;;;;10.06;nan;96702.03;5096733;28;19930;-76
2021/10/21 01:33:38;;;;;;;;;;;;;;;10.07;nan;96686.88;5111352;28;19930;-76
2021/10/21 01:36:10;;;;;;;;;;;;;;;10.06;nan;96688.88;5114159;28;20017;-76
2021/10/21 01:38:37;;;;;;;;;;;;;;;10.04;nan;96682.22;5079944;28;19930;-77
2021/10/21 01:41:05;;;;;;;;;;;;;;;10.37;nan;96689.28;5114326;28;19924;-77
2021/10/21 01:43:32;;;;;;;;;;;;;;;10.07;nan;96690.44;5114529;28;19927;-77
2021/10/21 01:45:59;;;;;;;;;;;;;;;10.15;nan;96708.34;5114411;28;19924;-76
2021/10/21 01:48:28;;;;;;;;;;;;;;;10.43;nan;96709.69;5114279;28;19924;-77
2021/10/21 01:50:55;;;;;;;;;;;;;;;10.33;nan;96715.84;5114227;28;20355;-77
2021/10/21 01:53:22;;;;;;;;;;;;;;;10.13;nan;96712.88;5114206;28;19924;-77
2021/10/21 01:55:50;;;;;;;;;;;;;;;9.91;nan;96727.09;5113980;28;19937;-77
2021/10/21 01:58:17;;;;;;;;;;;;;;;10.09;nan;96713.06;5076915;28;20366;-77
2021/10/21 02:00:44;;;;;;;;;;;;;;;9.90;nan;96720.00;5074701;28;19924;-77
2021/10/21 02:03:11;;;;;;;;;;;;;;;10.18;nan;96721.34;5079403;28;19924;-77
2021/10/21 02:05:38;;;;;;;;;;;;;;;9.99;nan;96717.13;5093445;28;19931;-76
2021/10/21 02:08:05;;;;;;;;;;;;;;;10.15;nan;96727.09;5093727;28;19928;-77
2021/10/21 02:10:32;;;;;;;;;;;;;;;10.53;nan;96736.25;5093926;28;19930;-77
2021/10/21 02:13:00;;;;;;;;;;;;;;;10.54;nan;96746.19;5093720;28;19924;-76
2021/10/21 02:15:28;;;;;;;;;;;;;;;10.50;nan;96728.84;5093278;28;20375;-77
2021/10/21 02:17:55;;;;;;;;;;;;;;;10.89;nan;96737.94;5093584;28;19931;-77
2021/10/21 02:20:22;;;;;;;;;;;;;;;10.95;nan;96744.38;5093456;28;19924;-77
2021/10/21 02:22:50;;;;;;;;;;;;;;;10.79;nan;96750.47;5072087;28;19930;-77
2021/10/21 02:25:18;;;;;;;;;;;;;;;10.82;nan;96743.91;5083710;28;19931;-77
2021/10/21 02:27:45;;;;;;;;;;;;;;;10.93;nan;96744.13;5093430;28;19925;-77
2021/10/21 02:30:14;;;;;;;;;;;;;;;10.69;nan;96743.44;5075899;28;19923;-77
2021/10/21 02:32:41;;;;;;;;;;;;;;;10.78;nan;96744.09;5072334;28;19931;-76
2021/10/21 02:35:09;;;;;;;;;;;;;;;10.64;nan;96752.47;5085829;28;19939;-77
2021/10/21 02:37:38;;;;;;;;;;;;;;;10.45;nan;96765.03;5096543;28;20269;-77
2021/10/21 02:40:07;;;;;;;;;;;;;;;10.41;nan;96789.56;5097326;28;20352;-77
2021/10/21 02:42:34;;;;;;;;;;;;;;;10.00;nan;96779.25;5097644;28;19944;-77
2021/10/21 02:45:01;;;;;;;;;;;;;;;10.19;nan;96777.94;5097438;28;19954;-77
2021/10/21 02:47:28;;;;;;;;;;;;;;;10.26;nan;96794.31;5097301;28;19924;-77
2021/10/21 02:49:55;;;;;;;;;;;;;;;10.16;nan;96790.81;5097400;28;19935;-77
2021/10/21 02:52:23;;;;;;;;;;;;;;;10.47;nan;96804.41;5097310;28;19935;-77
2021/10/21 02:54:50;;;;;;;;;;;;;;;10.20;nan;96782.25;5097057;28;20306;-77
2021/10/21 02:57:17;;;;;;;;;;;;;;;10.27;nan;96807.03;5097169;28;20422;-77
2021/10/21 02:59:44;;;;;;;;;;;;;;;10.29;nan;96816.47;5097333;28;19946;-77
2021/10/21 03:02:12;;;;;;;;;;;;;;;10.06;nan;96824.78;5096963;28;19928;-76
2021/10/21 03:04:39;;;;;;;;;;;;;;;10.06;nan;96827.56;5097234;28;19924;-76
2021/10/21 03:07:06;;;;;;;;;;;;;;;9.90;nan;96833.56;5080469;28;19924;-76
2021/10/21 03:09:34;;;;;;;;;;;;;;;9.75;nan;96838.28;5097126;28;20456;-77
2021/10/21 03:12:01;;;;;;;;;;;;;;;9.90;nan;96816.81;5096991;28;19924;-77
2021/10/21 03:14:28;;;;;;;;;;;;;;;9.67;nan;96831.47;5075598;28;20334;-77
2021/10/21 03:16:55;;;;;;;;;;;;;;;9.67;nan;96854.56;5090851;28;20623;-76
2021/10/21 03:19:22;;;;;;;;;;;;;;;9.78;nan;96870.78;5096975;28;19969;-76
2021/10/21 03:21:50;;;;;;;;;;;;;;;9.87;nan;96879.13;5075380;28;20447;-77
2021/10/21 03:24:17;;;;;;;;;;;;;;;9.85;nan;96887.19;5095428;28;19936;-76
2021/10/21 03:26:44;;;;;;;;;;;;;;;9.90;nan;96884.53;5096921;28;19923;-77
2021/10/21 03:29:11;;;;;;;;;;;;;;;9.63;nan;96897.81;5096611;28;20343;-77
2021/10/21 03:31:39;;;;;;;;;;;;;;;9.60;nan;96918.25;5096474;28;19977;-77
2021/10/21 03:34:06;;;;;;;;;;;;;;;9.36;nan;96934.09;5096761;28;19930;-76
2021/10/21 03:36:34;;;;;;;;;;;;;;;9.37;nan;96930.06;5075092;28;19925;-77
2021/10/21 03:39:01;;;;;;;;;;;;;;;9.43;nan;96950.47;5090381;28;20402;-76
2021/10/21 03:41:28;;;;;;;;;;;;;;;9.47;nan;96962.22;5082389;28;20355;-76
2021/10/21 03:43:56;;;;;;;;;;;;;;;9.36;nan;96953.59;5096638;28;19924;-76
2021/10/21 03:46:23;;;;;;;;;;;;;;;9.46;nan;96988.56;5096009;28;19924;-76
2021/10/21 03:48:50;;;;;;;;;;;;;;;9.44;nan;97004.97;5095485;28;19935;-76
2021/10/21 03:51:18;;;;;;;;;;;;;;;9.16;nan;97010.53;5095906;28;19928;-76
2021/10/21 03:53:45;;;;;;;;;;;;;;;9.09;nan;97005.28;5074874;28;19928;-77
2021/10/21 03:56:12;;;;;;;;;;;;;;;8.89;nan;97002.16;5091292;28;20424;-76
2021/10/21 03:58:39;;;;;;;;;;;;;;;8.85;nan;97021.03;5096117;28;19924;-76
2021/10/21 04:01:06;;;;;;;;;;;;;;;8.85;nan;97039.75;5095819;28;19931;-76
2021/10/21 04:03:33;;;;;;;;;;;;;;;9.15;nan;97036.88;5074419;28;19924;-76
2021/10/21 04:06:01;;;;;;;;;;;;;;;8.97;nan;97036.84;5087640;28;19931;-76
2021/10/21 04:08:28;;;;;;;;;;;;;;;8.80;nan;97066.19;5095554;28;20371;-76
2021/10/21 04:10:55;;;;;;;;;;;;;;;8.38;nan;97109.59;5095489;28;19927;-76
2021/10/21 04:13:22;;;;;;;;;;;;;;;8.79;nan;97162.09;5095583;28;20416;-76
2021/10/21 04:15:51;;;;;;;;;;;;;;;9.16;nan;97165.81;5095725;28;19965;-76
2021/10/21 04:18:18;;;;;;;;;;;;;;;8.82;nan;97175.09;5095746;28;20306;-76
2021/10/21 04:20:46;;;;;;;;;;;;;;;8.71;nan;97176.72;5095590;28;20364;-76
2021/10/21 04:23:13;;;;;;;;;;;;;;;8.75;nan;97180.91;5095688;28;19931;-76
2021/10/21 04:25:40;;;;;;;;;;;;;;;8.64;nan;97177.78;5095416;28;20401;-76
2021/10/21 04:28:07;;;;;;;;;;;;;;;7.99;nan;97213.16;5095525;28;19928;-76
2021/10/21 04:30:35;;;;;;;;;;;;;;;8.27;nan;97223.28;5095298;28;19930;-76
2021/10/21 04:33:03;;;;;;;;;;;;;;;8.27;nan;97236.44;5077435;28;19969;-76
2021/10/21 04:35:30;;;;;;;;;;;;;;;8.28;nan;97241.56;5095302;28;19931;-76
2021/10/21 04:37:57;;;;;;;;;;;;;;;8.06;nan;97229.59;5095156;28;19955;-76
2021/10/21 04:40:25;;;;;;;;;;;;;;;8.13;nan;97248.81;5077407;28;19924;-76
2021/10/21 04:42:52;;;;;;;;;;;;;;;8.09;nan;97239.06;5095197;28;19946;-76
2021/10/21 04:45:21;;;;;;;;;;;;;;;8.08;nan;97243.03;5073604;28;19925;-76
2021/10/21 04:47:49;;;;;;;;;;;;;;;7.79;nan;97268.25;5090163;28;20340;-76
2021/10/21 04:50:16;;;;;;;;;;;;;;;7.84;nan;97275.25;5095078;28;19924;-76
2021/10/21 04:52:44;;;;;;;;;;;;;;;7.82;nan;97303.50;5094872;28;20278;-76
2021/10/21 04:55:11;;;;;;;;;;;;;;;7.87;nan;97304.94;5094849;28;19924;-76
2021/10/21 04:57:38;;;;;;;;;;;;;;;8.42;nan;97313.38;5095008;28;19942;-76
2021/10/21 05:00:05;;;;;;;;;;;;;;;8.01;nan;97363.63;5094615;28;19924;-76
2021/10/21 05:02:33;;;;;;;;;;;;;;;7.62;nan;97383.56;5094915;28;20436;-76
2021/10/21 05:05:00;;;;;;;;;;;;;;;7.21;nan;97409.41;5094702;28;20344;-76
2021/10/21 05:07:28;;;;;;;;;;;;;;;6.86;nan;97415.19;5059517;28;19935;-76
2021/10/21 05:09:55;;;;;;;;;;;;;;;6.90;nan;97415.88;5087196;28;19924;-76
2021/10/21 05:12:23;;;;;;;;;;;;;;;7.01;nan;97435.78;5094517;28;19934;-76
2021/10/21 05:14:52;;;;;;;;;;;;;;;6.85;nan;97442.16;5094605;28;20416;-76
2021/10/21 05:17:19;;;;;;;;;;;;;;;7.19;nan;97445.16;5094379;28;19924;-76
2021/10/21 05:19:47;;;;;;;;;;;;;;;7.02;nan;97445.69;5094433;28;19924;-76
2021/10/21 05:22:14;;;;;;;;;;;;;;;7.27;nan;97465.97;5094374;28;19928;-76
2021/10/21 05:24:41;;;;;;;;;;;;;;;6.74;nan;97465.88;5094577;28;19924;-76
2021/10/21 05:27:11;;;;;;;;;;;;;;;6.63;nan;97482.81;5059519;28;19957;-76
2021/10/21 05:29:38;;;;;;;;;;;;;;;6.57;nan;97487.28;5094441;28;19946;-76
2021/10/21 05:32:07;;;;;;;;;;;;;;;6.50;nan;97500.56;5094338;28;19928;-75
2021/10/21 05:34:35;;;;;;;;;;;;;;;6.70;nan;97498.47;5072512;28;20511;-76
2021/10/21 05:37:02;;;;;;;;;;;;;;;6.38;nan;97506.81;5085877;28;19924;-76
2021/10/21 05:39:30;;;;;;;;;;;;;;;6.53;nan;97524.66;5094082;28;19931;-76
2021/10/21 05:41:58;;;;;;;;;;;;;;;6.57;nan;97537.25;5076033;28;19925;-76
2021/10/21 05:44:25;;;;;;;;;;;;;;;7.03;nan;97547.97;5094032;28;19931;-76
2021/10/21 05:46:53;;;;;;;;;;;;;;;7.07;nan;97553.44;5093989;28;19930;-76
2021/10/21 05:49:20;;;;;;;;;;;;;;;7.05;nan;97556.66;5093654;28;19928;-76
2021/10/21 05:51:48;;;;;;;;;;;;;;;6.62;nan;97560.94;5093796;28;19932;-76
2021/10/21 05:54:15;;;;;;;;;;;;;;;6.73;nan;97572.53;5093829;28;19950;-76
2021/10/21 05:56:43;;;;;;;;;;;;;;;6.46;nan;97580.34;5093365;28;19924;-76
2021/10/21 05:59:11;;;;;;;;;;;;;;;6.27;nan;97592.28;5072441;28;19924;-76
2021/10/21 06:01:38;;;;;;;;;;;;;;;7.02;nan;97598.41;5070307;28;19928;-76
2021/10/21 06:04:05;;;;;;;;;;;;;;;6.76;nan;97605.00;5083938;28;19924;-76
2021/10/21 06:06:36;;;;;;;;;;;;;;;6.70;nan;97613.06;5055567;28;19973;-76
2021/10/21 06:09:04;;;;;;;;;;;;;;;7.05;nan;97616.97;5092919;28;19924;-76
2021/10/21 06:11:33;;;;;;;;;;;;;;;6.61;nan;97615.66;5071619;28;19929;-76
2021/10/21 06:14:01;;;;;;;;;;;;;;;6.51;nan;97627.00;5086823;28;19925;-76
2021/10/21 06:16:29;;;;;;;;;;;;;;;6.33;nan;97630.16;5082467;28;19934;-76
2021/10/21 06:18:57;;;;;;;;;;;;;;;6.43;nan;97653.34;5093313;28;19985;-76
2021/10/21 06:21:25;;;;;;;;;;;;;;;6.40;nan;97660.53;5093632;28;19924;-76
2021/10/21 06:23:52;;;;;;;;;;;;;;;6.02;nan;97655.78;5093443;28;19934;-76
2021/10/21 06:26:20;;;;;;;;;;;;;;;6.24;nan;97674.34;5071853;28;19931;-76
2021/10/21 06:28:50;;;;;;;;;;;;;;;6.31;nan;97674.19;5067833;28;19932;-75
2021/10/21 06:31:19;;;;;;;;;;;;;;;6.06;nan;97678.69;5080754;28;20449;-74
2021/10/21 06:33:46;;;;;;;;;;;;;;;6.09;nan;97686.16;5080397;28;19924;-75
2021/10/21 06:36:14;;;;;;;;;;;;;;;5.95;nan;97689.22;5092099;28;19924;-75
2021/10/21 06:38:41;;;;;;;;;;;;;;;6.17;nan;97690.34;5067733;28;19925;-75
2021/10/21 06:41:08;;;;;;;;;;;;;;;6.11;nan;97703.13;5072045;28;19928;-75
2021/10/21 06:43:36;;;;;;;;;;;;;;;6.12;nan;97710.28;5073446;28;19928;-75
2021/10/21 06:46:05;;;;;;;;;;;;;;;6.23;nan;97719.13;5088901;28;19924;-75
2021/10/21 06:48:32;;;;;;;;;;;;;;;6.41;nan;97725.09;5093514;28;19969;-75
2021/10/21 06:50:59;;;;;;;;;;;;;;;6.25;nan;97731.38;5055382;28;19948;-75
2021/10/21 06:53:27;;;;;;;;;;;;;;;6.07;nan;97738.47;5093208;28;19977;-75
2021/10/21 06:55:54;;;;;;;;;;;;;;;6.05;nan;97744.44;5092760;28;19927;-75
2021/10/21 06:58:21;;;;;;;;;;;;;;;6.12;nan;97744.31;5091594;28;20309;-75
2021/10/21 07:00:49;;;;;;;;;;;;;;;6.16;nan;97760.88;5092972;28;19969;-75
2021/10/21 07:03:16;;;;;;;;;;;;;;;6.25;nan;97777.75;5093087;28;19931;-75
2021/10/21 07:05:44;;;;;;;;;;;;;;;6.05;nan;97785.25;5075021;28;19924;-75
2021/10/21 07:08:12;;;;;;;;;;;;;;;6.33;nan;97793.81;5093058;28;19968;-75
2021/10/21 07:10:39;;;;;;;;;;;;;;;6.19;nan;97805.19;5091662;28;19931;-75
2021/10/21 07:13:07;;;;;;;;;;;;;;;6.43;nan;97819.78;5093091;28;19924;-75
2021/10/21 07:15:36;;;;;;;;;;;;;;;6.46;nan;97824.50;5074652;28;19924;-75
2021/10/21 07:18:04;;;;;;;;;;;;;;;6.34;nan;97837.00;5093080;28;20378;-75
2021/10/21 07:20:31;;;;;;;;;;;;;;;6.82;nan;97853.09;5075069;28;19932;-75
2021/10/21 07:22:58;;;;;;;;;;;;;;;6.35;nan;97858.00;5075283;28;19963;-75
2021/10/21 07:25:28;;;;;;;;;;;;;;;6.90;nan;97865.66;5096649;28;19928;-75
2021/10/21 07:27:58;;;;;;;;;;;;;;;7.10;nan;97866.41;5096780;28;19924;-75
2021/10/21 07:30:26;;;;;;;;;;;;;;;7.24;nan;97882.75;5096742;28;19924;-75
2021/10/21 07:32:54;;;;;;;;;;;;;;;7.21;nan;97891.97;5075065;28;20269;-75
2021/10/21 07:35:22;;;;;;;;;;;;;;;6.89;nan;97891.84;5070370;28;19925;-75
2021/10/21 07:37:50;;;;;;;;;;;;;;;6.63;nan;97901.09;5096167;28;19924;-75
2021/10/21 07:40:17;;;;;;;;;;;;;;;7.22;nan;97915.78;5096591;28;20290;-75
2021/10/21 07:42:44;;;;;;;;;;;;;;;6.95;nan;97924.22;5096381;28;19928;-75
2021/10/21 07:45:12;;;;;;;;;;;;;;;7.22;nan;97926.88;5096317;28;19928;-75
2021/10/21 07:47:39;;;;;;;;;;;;;;;6.95;nan;97934.56;5096448;28;20364;-75
2021/10/21 07:50:08;;;;;;;;;;;;;;;7.06;nan;97935.13;5096422;28;19924;-75
2021/10/21 07:52:37;;;;;;;;;;;;;;;7.01;nan;97949.53;5096083;28;19977;-75
2021/10/21 07:55:06;;;;;;;;;;;;;;;8.25;nan;97967.88;5060774;28;19924;-75
2021/10/21 07:57:33;;;;;;;;;;;;;;;8.68;nan;97960.81;5070937;28;19931;-75
2021/10/21 08:00:01;;;;;;;;;;;;;;;8.90;nan;97967.41;5096081;28;19946;-75
2021/10/21 08:02:38;;;;;;;;;;;;;;;9.08;nan;97981.63;5078135;28;19935;-75
2021/10/21 08:05:05;;;;;;;;;;;;;;;8.79;nan;97989.19;5095837;28;19990;-75
2021/10/21 08:07:42;;;;;;;;;;;;;;;8.90;nan;97995.25;5096022;28;19924;-75
2021/10/21 08:10:11;;;;;;;;;;;;;;;8.49;nan;97991.53;5095843;28;19924;-75
2021/10/21 08:12:38;;;;;;;;;;;;;;;8.86;nan;98010.50;5095836;28;19924;-75
2021/10/21 08:15:05;;;;;;;;;;;;;;;9.11;nan;98025.34;5095947;28;20356;-75
2021/10/21 08:17:33;;;;;;;;;;;;;;;9.32;nan;98039.91;5095784;28;20355;-75
2021/10/21 08:20:00;;;;;;;;;;;;;;;9.18;nan;98048.66;5095920;28;19928;-75
2021/10/21 08:22:27;;;;;;;;;;;;;;;9.32;nan;98045.47;5074145;28;19925;-75
2021/10/21 08:24:55;;;;;;;;;;;;;;;8.74;nan;98039.81;5085461;28;19969;-75
2021/10/21 08:27:22;;;;;;;;;;;;;;;8.84;nan;98043.56;5095474;28;20363;-73
2021/10/21 08:29:50;;;;;;;;;;;;;;;8.79;nan;98066.38;5095795;28;20424;-80
2021/10/21 08:32:18;;;;;;;;;;;;;;;8.80;nan;98074.28;5094031;28;19925;-75
2021/10/21 08:34:45;;;;;;;;;;;;;;;8.48;nan;98079.81;5082138;28;19932;-75
2021/10/21 08:37:12;;;;;;;;;;;;;;;8.43;nan;98083.16;5091374;28;20341;-75
2021/10/21 08:39:41;;;;;;;;;;;;;;;8.63;nan;98092.19;5083741;28;20268;-75
2021/10/21 08:42:11;;;;;;;;;;;;;;;8.59;nan;98099.84;5088185;28;19928;-75
2021/10/21 08:44:39;;;;;;;;;;;;;;;8.54;nan;98105.94;5057941;28;19936;-75
2021/10/21 08:47:07;;;;;;;;;;;;;;;8.52;nan;98108.38;5092492;28;19924;-75
2021/10/21 08:49:39;;;;;;;;;;;;;;;8.75;nan;98121.38;5091362;28;19932;-75
2021/10/21 08:52:06;;;;;;;;;;;;;;;8.74;nan;98125.38;5086503;28;19930;-75
2021/10/21 08:54:34;;;;;;;;;;;;;;;8.09;nan;98141.09;5089928;28;20267;-75
2021/10/21 08:57:02;;;;;;;;;;;;;;;8.16;nan;98152.09;5091042;28;20435;-76
2021/10/21 08:59:30;;;;;;;;;;;;;;;8.39;nan;98168.72;5091230;28;19932;-77
2021/10/21 09:02:10;;;;;;;;;;;;;;;8.19;nan;98169.94;5090737;28;19949;-75
2021/10/21 09:10:08;;;;;;;;;;;;;;;8.45;nan;98194.06;5079708;28;19932;-75
2021/10/21 09:12:41;;;;;;;;;;;;;;;8.40;nan;98205.69;5078634;28;20028;-75
2021/10/21 09:15:10;;;;;;;;;;;;;;;8.78;nan;98210.41;5090718;28;19935;-75
2021/10/21 09:17:38;;;;;;;;;;;;;;;8.74;nan;98209.72;5081326;28;19928;-75
2021/10/21 09:20:24;;;;;;;;;;;;;;;8.80;nan;98213.56;5091090;28;19931;-75
2021/10/21 09:22:53;;;;;;;;;;;;;;;8.67;nan;98226.59;5088013;28;19932;-75
2021/10/21 09:25:22;;;;;;;;;;;;;;;8.59;nan;98236.28;5090670;28;19930;-75
2021/10/21 09:27:49;;;;;;;;;;;;;;;8.63;nan;98242.56;5090161;28;20693;-75
2021/10/21 09:30:22;;;;;;;;;;;;;;;8.78;nan;98246.63;5089578;28;19928;-75
2021/10/21 09:32:50;;;;;;;;;;;;;;;8.49;nan;98251.25;5089889;28;19962;-75
2021/10/21 09:35:19;;;;;;;;;;;;;;;8.95;nan;98259.38;5082111;28;20287;-75
2021/10/21 09:37:47;;;;;;;;;;;;;;;9.32;nan;98271.28;5087930;28;19930;-75
2021/10/21 09:40:22;;;;;;;;;;;;;;;9.49;nan;98267.28;5087175;28;19924;-75
2021/10/21 09:42:55;;;;;;;;;;;;;;;9.44;nan;98278.94;5089379;28;19928;-75
2021/10/21 09:45:23;;;;;;;;;;;;;;;9.30;nan;98287.66;5089546;28;19924;-75
2021/10/21 09:47:58;;;;;;;;;;;;;;;9.03;nan;98294.22;5089585;28;19924;-75
2021/10/21 09:50:27;;;;;;;;;;;;;;;9.07;nan;98294.94;5087557;28;19928;-75
2021/10/21 09:53:03;;;;;;;;;;;;;;;9.06;nan;98298.94;5086094;28;19924;-75
2021/10/21 09:55:30;;;;;;;;;;;;;;;9.41;nan;98313.28;5090507;28;20370;-75
2021/10/21 09:58:01;;;;;;;;;;;;;;;8.96;nan;98319.47;5086887;28;19924;-74
2021/10/21 10:00:29;;;;;;;;;;;;;;;8.88;nan;98331.97;5089955;28;19931;-75
2021/10/21 10:03:06;;;;;;;;;;;;;;;9.48;nan;98318.72;5087251;28;19931;-75
2021/10/21 10:05:34;;;;;;;;;;;;;;;9.49;nan;98326.63;5089084;28;19928;-76
2021/10/21 10:08:02;;;;;;;;;;;;;;;9.33;nan;98336.97;5088868;28;20333;-76
2021/10/21 10:10:29;;;;;;;;;;;;;;;9.32;nan;98335.41;5089731;28;19924;-76
2021/10/21 10:12:56;;;;;;;;;;;;;;;9.22;nan;98334.44;5072143;28;19928;-75
2021/10/21 10:15:25;;;;;;;;;;;;;;;9.53;nan;98338.50;5089565;28;19924;-75
2021/10/21 10:17:52;;;;;;;;;;;;;;;9.43;nan;98355.47;5089953;28;19931;-75
2021/10/21 10:20:26;;;;;;;;;;;;;;;9.58;nan;98359.50;5068726;28;19935;-75
2021/10/21 10:22:55;;;;;;;;;;;;;;;9.50;nan;98361.66;5076728;28;19935;-75
2021/10/21 10:25:22;;;;;;;;;;;;;;;9.85;nan;98374.00;5089440;28;19924;-75
2021/10/21 10:27:54;;;;;;;;;;;;;;;9.13;nan;98376.81;5068106;28;20345;-75
2021/10/21 10:30:40;;;;;;;;;;;;;;;9.47;nan;98375.69;5082454;28;19924;-75
2021/10/21 10:33:07;;;;;;;;;;;;;;;10.16;nan;98381.59;5077228;28;19924;-76
2021/10/21 10:35:41;;;;;;;;;;;;;;;10.60;nan;98385.69;5088719;28;19934;-76
2021/10/21 10:38:10;;;;;;;;;;;;;;;10.26;nan;98396.53;5067213;28;19994;-76
2021/10/21 10:40:42;;;;;;;;;;;;;;;10.24;nan;98404.53;5084883;28;19924;-76
2021/10/21 10:43:10;;;;;;;;;;;;;;;9.97;nan;98418.75;5082462;28;20348;-76
2021/10/21 10:45:46;;;;;;;;;;;;;;;9.80;nan;98414.34;5078780;28;19928;-75
2021/10/21 10:48:14;;;;;;;;;;;;;;;10.18;nan;98417.47;5084325;28;20406;-76
2021/10/21 10:50:41;;;;;;;;;;;;;;;9.99;nan;98423.88;5081492;28;20609;-76
2021/10/21 10:53:09;;;;;;;;;;;;;;;9.93;nan;98436.78;5081264;28;19932;-76
2021/10/21 10:55:40;;;;;;;;;;;;;;;9.87;nan;98442.13;5041686;28;20574;-76
2021/10/21 10:58:15;;;;;;;;;;;;;;;9.96;nan;98427.56;5081647;28;19931;-76
2021/10/21 11:00:48;;;;;;;;;;;;;;;10.44;nan;98430.38;5082717;28;19928;-76
2021/10/21 11:03:29;;;;;;;;;;;;;;;10.50;nan;98437.78;5085364;28;19932;-75
2021/10/21 11:05:57;;;;;;;;;;;;;;;10.25;nan;98434.06;5093514;28;20299;-75
2021/10/21 11:08:43;;;;;;;;;;;;;;;10.05;nan;98436.09;5073309;28;19928;-75
2021/10/21 11:11:31;;;;;;;;;;;;;;;9.70;nan;98448.06;5088136;28;19928;-76
2021/10/21 11:14:07;;;;;;;;;;;;;;;10.21;nan;98459.25;5084845;28;19932;-75
2021/10/21 11:16:41;;;;;;;;;;;;;;;9.73;nan;98466.75;5088189;28;19982;-76
2021/10/21 11:19:10;;;;;;;;;;;;;;;10.07;nan;98473.53;5087152;28;19929;-75
2021/10/21 11:21:53;;;;;;;;;;;;;;;10.42;nan;98483.09;5093254;28;19928;-76
2021/10/21 11:24:53;;;;;;;;;;;;;;;10.36;nan;98476.47;5092129;28;19931;-75
2021/10/21 11:27:28;;;;;;;;;;;;;;;10.50;nan;98476.09;5062007;28;20556;-76
2021/10/21 11:30:13;;;;;;;;;;;;;;;10.82;nan;98484.47;5092159;28;19930;-76
2021/10/21 11:32:53;;;;;;;;;;;;;;;10.65;nan;98488.50;5090444;28;19924;-75
2021/10/21 11:35:21;;;;;;;;;;;;;;;10.66;nan;98482.47;5085322;28;19925;-76
2021/10/21 11:37:53;;;;;;;;;;;;;;;10.98;nan;98489.25;5083668;28;19928;-75
2021/10/21 11:40:28;;;;;;;;;;;;;;;10.93;nan;98487.78;5086803;28;19976;-75
2021/10/21 11:42:56;;;;;;;;;;;;;;;11.40;nan;98491.66;5092511;28;19932;-75
2021/10/21 11:45:28;;;;;;;;;;;;;;;10.70;nan;98504.72;5092415;28;19928;-75
2021/10/21 11:47:56;;;;;;;;;;;;;;;10.96;nan;98512.06;5092356;28;19938;-75
2021/10/21 11:50:34;;;;;;;;;;;;;;;10.55;nan;98514.69;5092207;28;19924;-76
2021/10/21 11:53:02;;;;;;;;;;;;;;;10.56;nan;98510.66;5077540;28;19928;-76
2021/10/21 11:55:30;;;;;;;;;;;;;;;10.86;nan;98518.69;5074960;28;19931;-76
2021/10/21 11:58:01;;;;;;;;;;;;;;;10.62;nan;98518.09;5091682;28;19932;-76
2021/10/21 12:00:31;;;;;;;;;;;;;;;10.44;nan;98514.16;5091412;28;20443;-76
2021/10/21 12:03:00;;;;;;;;;;;;;;;10.70;nan;98524.28;5092007;28;19924;-76
2021/10/21 12:05:28;;;;;;;;;;;;;;;10.89;nan;98523.41;5092244;28;19928;-76
2021/10/21 12:07:57;;;;;;;;;;;;;;;10.91;nan;98518.16;5091874;28;19924;-76
2021/10/21 12:10:25;;;;;;;;;;;;;;;10.91;nan;98526.53;5093414;28;19924;-76
2021/10/21 12:12:52;;;;;;;;;;;;;;;11.21;nan;98523.34;5049377;28;19928;-76
2021/10/21 12:15:23;;;;;;;;;;;;;;;10.96;nan;98517.63;5091542;28;19924;-76
2021/10/21 12:17:51;;;;;;;;;;;;;;;11.75;nan;98524.25;5086595;28;19972;-76
2021/10/21 12:20:41;;;;;;;;;;;;;;;11.92;nan;98522.16;5091189;28;19930;-76
2021/10/21 12:23:16;;;;;;;;;;;;;;;11.69;nan;98531.59;5086099;28;19928;-76
2021/10/21 12:25:47;;;;;;;;;;;;;;;12.07;nan;98531.69;5089799;28;19923;-76
2021/10/21 12:28:15;;;;;;;;;;;;;;;12.29;nan;98530.59;5088916;28;19980;-76
2021/10/21 12:30:42;;;;;;;;;;;;;;;11.70;nan;98529.59;5090869;28;19935;-76
2021/10/21 12:33:12;;;;;;;;;;;;;;;11.80;nan;98532.09;5091912;28;19930;-76
2021/10/21 12:35:58;;;;;;;;;;;;;;;11.80;nan;98534.88;5091021;28;19939;-76
2021/10/21 12:38:25;;;;;;;;;;;;;;;11.37;nan;98526.13;5091521;28;19937;-76
2021/10/21 12:41:03;;;;;;;;;;;;;;;11.40;nan;98533.63;5091193;28;19931;-76
2021/10/21 12:43:32;;;;;;;;;;;;;;;11.36;nan;98532.91;5091196;28;19924;-76
2021/10/21 12:46:04;;;;;;;;;;;;;;;10.59;nan;98534.94;5091181;28;20295;-76
2021/10/21 12:48:34;;;;;;;;;;;;;;;10.95;nan;98532.81;5091578;28;19924;-76
2021/10/21 12:51:10;;;;;;;;;;;;;;;11.21;nan;98540.13;5091479;28;19930;-76
2021/10/21 12:53:38;;;;;;;;;;;;;;;11.70;nan;98547.19;5090933;28;19924;-76
2021/10/21 12:56:19;;;;;;;;;;;;;;;11.20;nan;98552.53;5090627;28;19931;-76
2021/10/21 12:58:57;;;;;;;;;;;;;;;11.72;nan;98547.50;5090525;28;19924;-76
2021/10/21 13:01:25;;;;;;;;;;;;;;;11.08;nan;98552.47;5090953;28;20387;-76
2021/10/21 13:03:52;;;;;;;;;;;;;;;11.63;nan;98552.97;5091232;28;20355;-75
2021/10/21 13:06:19;;;;;;;;;;;;;;;11.42;nan;98545.13;5091701;28;19924;-75
2021/10/21 13:08:51;;;;;;;;;;;;;;;11.81;nan;98550.47;5092891;28;19985;-75
2021/10/21 13:11:23;;;;;;;;;;;;;;;11.70;nan;98554.78;5093275;28;19932;-75
2021/10/21 13:13:58;;;;;;;;;;;;;;;11.40;nan;98549.63;5089957;28;19924;-75
2021/10/21 13:16:25;;;;;;;;;;;;;;;11.45;nan;98554.69;5074373;28;20352;-75
2021/10/21 13:18:59;;;;;;;;;;;;;;;11.39;nan;98548.81;5094268;28;20649;-75
2021/10/21 13:21:27;;;;;;;;;;;;;;;11.35;nan;98561.31;5093508;28;19928;-75
2021/10/21 13:23:57;;;;;;;;;;;;;;;11.49;nan;98561.75;5094233;28;20003;-75
2021/10/21 13:26:24;;;;;;;;;;;;;;;11.59;nan;98563.44;5093208;28;19932;-75
2021/10/21 13:28:51;;;;;;;;;;;;;;;12.00;nan;98576.69;5075558;28;20305;-75
2021/10/21 13:31:20;;;;;;;;;;;;;;;11.83;nan;98575.97;5093940;28;19927;-75